createdAt,value
2018-06-23T00:01:03.276Z,13.90
2018-06-23T00:06:06.555Z,13.90
2018-06-23T00:11:09.076Z,13.90
2018-06-23T00:16:11.599Z,13.90
2018-06-23T00:21:14.116Z,13.90
2018-06-23T00:26:16.636Z,13.90
2018-06-23T00:31:19.155Z,13.90
2018-06-23T00:36:21.708Z,13.80
2018-06-23T00:41:24.228Z,13.80
2018-06-23T00:46:26.743Z,13.80
2018-06-23T00:51:29.262Z,13.80
2018-06-23T00:56:31.787Z,13.80
2018-06-23T01:01:35.211Z,13.70
2018-06-23T01:06:38.519Z,13.70
2018-06-23T01:11:41.813Z,13.70
2018-06-23T01:16:44.388Z,13.60
2018-06-23T01:21:46.869Z,13.60
2018-06-23T01:26:49.404Z,13.60
2018-06-23T01:31:51.923Z,13.50
2018-06-23T01:36:54.439Z,13.50
2018-06-23T01:41:56.953Z,13.50
2018-06-23T01:46:59.472Z,13.40
2018-06-23T01:52:01.993Z,13.40
2018-06-23T01:57:04.511Z,13.30
2018-06-23T02:02:07.068Z,13.30
2018-06-23T02:07:09.582Z,13.30
2018-06-23T02:12:12.123Z,13.20
2018-06-23T02:17:34.375Z,13.20
2018-06-23T02:22:42.490Z,13.10
2018-06-23T02:27:59.892Z,13.00
2018-06-23T02:33:03.197Z,12.90
2018-06-23T02:38:05.715Z,12.90
2018-06-23T02:43:08.236Z,12.80
2018-06-23T02:48:10.764Z,12.80
2018-06-23T02:53:13.291Z,12.70
2018-06-23T02:58:15.840Z,12.70
2018-06-23T03:03:18.363Z,12.60
2018-06-23T03:08:21.650Z,12.50
2018-06-23T03:13:24.173Z,12.50
2018-06-23T03:18:26.688Z,12.40
2018-06-23T03:23:29.233Z,12.40
2018-06-23T03:28:31.748Z,12.30
2018-06-23T03:33:34.268Z,12.30
2018-06-23T03:38:36.787Z,12.20
2018-06-23T03:43:39.306Z,12.20
2018-06-23T03:48:41.859Z,12.20
2018-06-23T03:53:44.372Z,12.20
2018-06-23T03:58:47.652Z,12.10
2018-06-23T04:03:50.179Z,12.00
2018-06-23T04:08:52.699Z,12.10
2018-06-23T04:13:55.242Z,12.00
2018-06-23T04:18:57.761Z,12.00
2018-06-23T04:24:00.281Z,12.10
2018-06-23T04:29:02.801Z,12.10
2018-06-23T04:34:05.316Z,12.10
2018-06-23T04:39:07.860Z,12.10
2018-06-23T04:44:10.370Z,12.20
2018-06-23T04:49:12.895Z,12.30
2018-06-23T04:54:15.476Z,12.40
2018-06-23T04:59:17.944Z,12.50
2018-06-23T05:04:20.467Z,12.60
2018-06-23T05:09:22.979Z,12.70
2018-06-23T05:14:25.503Z,12.80
2018-06-23T05:19:28.013Z,12.90
2018-06-23T05:24:30.531Z,13.10
2018-06-23T05:29:33.055Z,13.20
2018-06-23T05:34:35.578Z,13.40
2018-06-23T05:39:38.092Z,13.50
2018-06-23T05:44:40.646Z,13.80
2018-06-23T05:49:43.127Z,14.00
2018-06-23T05:54:45.648Z,14.30
2018-06-23T05:59:48.172Z,14.50
2018-06-23T06:04:50.688Z,14.80
2018-06-23T06:09:53.250Z,14.90
2018-06-23T06:14:55.767Z,15.10
2018-06-23T06:19:58.347Z,15.30
2018-06-23T06:25:00.859Z,15.60
2018-06-23T06:30:03.392Z,16.00
2018-06-23T06:35:05.907Z,16.30
2018-06-23T06:40:08.442Z,16.60
2018-06-23T06:45:10.972Z,16.90
2018-06-23T06:50:13.485Z,17.20
2018-06-23T06:55:16.001Z,17.40
2018-06-23T07:00:18.544Z,17.70
2018-06-23T07:05:21.067Z,18.10
2018-06-23T07:10:23.614Z,18.40
2018-06-23T07:15:27.140Z,18.50
2018-06-23T07:20:29.684Z,18.50
2018-06-23T07:25:33.811Z,18.40
2018-06-23T07:30:36.455Z,18.40
2018-06-23T07:35:38.964Z,18.50
2018-06-23T07:40:41.512Z,18.50
2018-06-23T07:45:44.004Z,18.50
2018-06-23T07:50:47.116Z,18.40
2018-06-23T07:55:50.387Z,18.30
2018-06-23T08:00:52.905Z,18.30
2018-06-23T08:05:55.433Z,18.30
2018-06-23T08:10:58.736Z,18.50
2018-06-23T08:16:01.253Z,18.50
2018-06-23T08:21:03.776Z,18.60
2018-06-23T08:26:06.484Z,18.70
2018-06-23T08:31:09.021Z,18.70
2018-06-23T08:36:11.536Z,18.60
2018-06-23T08:41:14.078Z,18.70
2018-06-23T08:46:16.616Z,18.80
2018-06-23T08:51:19.144Z,18.80
2018-06-23T08:56:21.680Z,18.80
2018-06-23T09:01:24.215Z,18.70
2018-06-23T09:06:26.735Z,18.70
2018-06-23T09:11:29.256Z,18.50
2018-06-23T09:16:31.768Z,18.40
2018-06-23T09:21:34.284Z,18.30
2018-06-23T09:26:36.815Z,18.30
2018-06-23T09:31:39.332Z,18.30
2018-06-23T09:36:41.876Z,18.30
2018-06-23T09:41:44.425Z,18.30
2018-06-23T09:46:46.940Z,18.20
2018-06-23T09:51:50.241Z,18.10
2018-06-23T09:56:53.552Z,18.10
2018-06-23T10:01:56.065Z,18.00
2018-06-23T10:06:58.676Z,18.10
2018-06-23T10:12:01.969Z,18.10
2018-06-23T10:17:04.489Z,18.10
2018-06-23T10:22:07.767Z,18.20
2018-06-23T10:27:10.297Z,18.20
2018-06-23T10:32:12.807Z,18.40
2018-06-23T10:37:15.333Z,18.60
2018-06-23T10:42:17.842Z,18.90
2018-06-23T10:47:20.360Z,19.20
2018-06-23T10:52:22.884Z,19.50
2018-06-23T10:57:26.208Z,19.70
2018-06-23T11:02:28.718Z,19.70
2018-06-23T11:07:31.256Z,19.80
2018-06-23T11:12:33.832Z,19.80
2018-06-23T11:17:36.356Z,20.00
2018-06-23T11:22:38.879Z,20.20
2018-06-23T11:27:41.407Z,20.30
2018-06-23T11:32:43.927Z,20.40
2018-06-23T11:37:46.494Z,20.40
2018-06-23T11:42:49.096Z,20.50
2018-06-23T11:47:51.728Z,20.60
2018-06-23T11:52:54.249Z,20.70
2018-06-23T11:57:57.538Z,20.90
2018-06-23T12:03:00.104Z,20.90
2018-06-23T12:08:02.623Z,21.00
2018-06-23T12:13:05.144Z,21.10
2018-06-23T12:18:07.665Z,21.20
2018-06-23T12:23:10.190Z,21.40
2018-06-23T12:28:12.706Z,21.60
2018-06-23T12:33:15.263Z,21.90
2018-06-23T12:38:17.781Z,22.10
2018-06-23T12:43:20.703Z,22.40
2018-06-23T12:48:23.253Z,22.60
2018-06-23T12:53:26.684Z,22.80
2018-06-23T12:58:29.205Z,22.90
2018-06-23T13:03:33.211Z,23.10
2018-06-23T13:08:35.735Z,23.30
2018-06-23T13:13:38.235Z,23.40
2018-06-23T13:18:40.757Z,23.50
2018-06-23T13:23:43.367Z,23.40
2018-06-23T13:28:45.878Z,23.40
2018-06-23T13:33:48.411Z,23.30
2018-06-23T13:38:50.933Z,23.30
2018-06-23T13:43:53.459Z,23.30
2018-06-23T13:48:55.996Z,23.10
2018-06-23T13:53:58.539Z,23.00
2018-06-23T13:59:01.059Z,23.00
2018-06-23T14:04:03.579Z,22.90
2018-06-23T14:09:06.101Z,22.80
2018-06-23T14:14:08.653Z,22.70
2018-06-23T14:19:11.180Z,22.60
2018-06-23T14:24:13.698Z,22.40
2018-06-23T14:29:16.229Z,22.30
2018-06-23T14:34:18.804Z,22.10
2018-06-23T14:39:21.406Z,22.00
2018-06-23T14:44:26.172Z,21.90
2018-06-23T14:49:28.727Z,21.90
2018-06-23T14:54:31.255Z,21.80
2018-06-23T14:59:33.808Z,21.80
2018-06-23T15:04:36.309Z,21.70
2018-06-23T15:10:05.595Z,21.60
2018-06-23T15:15:08.114Z,21.50
2018-06-23T15:20:10.627Z,21.40
2018-06-23T15:25:13.148Z,21.30
2018-06-23T15:30:16.064Z,21.20
2018-06-23T15:35:18.960Z,21.20
2018-06-23T15:40:21.856Z,21.10
2018-06-23T15:45:24.383Z,21.10
2018-06-23T15:50:26.900Z,21.00
2018-06-23T15:55:29.415Z,21.00
2018-06-23T16:00:31.965Z,20.90
2018-06-23T16:05:34.482Z,20.90
2018-06-23T16:10:37.000Z,20.70
2018-06-23T16:15:39.517Z,20.60
2018-06-23T16:20:42.040Z,20.50
2018-06-23T16:25:45.325Z,20.30
2018-06-23T16:30:47.851Z,20.30
2018-06-23T16:35:50.364Z,20.20
2018-06-23T16:40:52.884Z,20.10
2018-06-23T16:45:55.404Z,20.00
2018-06-23T16:50:57.974Z,19.90
2018-06-23T16:56:00.706Z,19.80
2018-06-23T17:01:04.135Z,19.70
2018-06-23T17:06:06.655Z,19.60
2018-06-23T17:11:09.188Z,19.60
2018-06-23T17:16:11.703Z,19.50
2018-06-23T17:21:14.226Z,19.40
2018-06-23T17:26:16.738Z,19.30
2018-06-23T17:31:19.256Z,19.30
2018-06-23T17:36:21.776Z,19.20
2018-06-23T17:41:24.304Z,19.10
2018-06-23T17:46:26.832Z,19.00
2018-06-23T17:51:29.387Z,19.00
2018-06-23T17:56:31.884Z,18.90
2018-06-23T18:01:34.575Z,18.80
2018-06-23T18:06:37.098Z,18.80
2018-06-23T18:11:39.615Z,18.70
2018-06-23T18:16:42.139Z,18.60
2018-06-23T18:21:44.677Z,18.60
2018-06-23T18:26:47.289Z,18.50
2018-06-23T18:31:49.844Z,18.40
2018-06-23T18:36:52.357Z,18.40
2018-06-23T18:41:54.871Z,18.30
2018-06-23T18:46:57.383Z,18.20
2018-06-23T18:51:59.903Z,18.20
2018-06-23T18:57:02.431Z,18.10
2018-06-23T19:02:04.956Z,18.00
2018-06-23T19:07:07.564Z,17.90
2018-06-23T19:12:10.083Z,17.90
2018-06-23T19:17:12.600Z,17.80
2018-06-23T19:22:15.130Z,17.70
2018-06-23T19:27:17.641Z,17.70
2018-06-23T19:32:20.164Z,17.60
2018-06-23T19:37:22.686Z,17.50
2018-06-23T19:42:25.208Z,17.40
2018-06-23T19:47:27.730Z,17.40
2018-06-23T19:52:30.239Z,17.40
2018-06-23T19:57:32.832Z,17.30
2018-06-23T20:02:35.292Z,17.20
2018-06-23T20:07:37.808Z,17.20
2018-06-23T20:12:40.328Z,17.10
2018-06-23T20:17:42.845Z,17.10
2018-06-23T20:22:45.376Z,17.00
2018-06-23T20:27:47.922Z,17.00
2018-06-23T20:32:50.452Z,16.90
2018-06-23T20:37:52.967Z,16.90
2018-06-23T20:42:55.492Z,16.90
2018-06-23T20:47:58.018Z,16.80
2018-06-23T20:53:00.554Z,16.80
2018-06-23T20:58:03.063Z,16.70
2018-06-23T21:03:05.588Z,16.70
2018-06-23T21:08:08.139Z,16.60
2018-06-23T21:13:10.659Z,16.60
2018-06-23T21:18:13.184Z,16.50
2018-06-23T21:23:15.712Z,16.50
2018-06-23T21:28:18.215Z,16.50
2018-06-23T21:33:20.836Z,16.40
2018-06-23T21:38:23.274Z,16.40
2018-06-23T21:43:25.790Z,16.40
2018-06-23T21:48:28.322Z,16.30
2018-06-23T21:53:31.600Z,16.30
2018-06-23T21:58:34.118Z,16.30
2018-06-23T22:03:36.636Z,16.30
2018-06-23T22:08:39.159Z,16.20
2018-06-23T22:13:41.680Z,16.20
2018-06-23T22:18:44.208Z,16.20
2018-06-23T22:23:46.723Z,16.10
2018-06-23T22:28:49.255Z,16.10
2018-06-23T22:33:51.764Z,16.10
2018-06-23T22:38:54.275Z,16.10
2018-06-23T22:43:56.916Z,16.00
2018-06-23T22:48:59.425Z,16.00
2018-06-23T22:54:01.947Z,16.00
2018-06-23T22:59:04.464Z,16.00
2018-06-23T23:04:06.972Z,16.00
2018-06-23T23:09:09.488Z,16.00
2018-06-23T23:14:12.008Z,15.90
2018-06-23T23:19:14.524Z,15.90
2018-06-23T23:24:17.812Z,15.80
2018-06-23T23:29:20.326Z,15.80
2018-06-23T23:34:23.616Z,15.80
2018-06-23T23:39:26.140Z,15.80
2018-06-23T23:44:28.651Z,15.70
2018-06-23T23:49:31.173Z,15.70
2018-06-23T23:54:33.687Z,15.70
2018-06-23T23:59:36.212Z,15.60
